Time;durP1;ratioP1;P1;durP2;ratioP2;P2;SDS_P1;SDS_P2;PMS_P1;PMS_P2;Temp;Humidity;BMP_temperature;BMP_pressure;BME280_temperature;BME280_humidity;BME280_pressure;Samples;Min_cycle;Max_cycle;Signal;HPM_P1;HPM_P2
2023/04/10 00:00:08;;;;;;;12.10;5.82;;;6.30;99.90;;;;;;5039667;28;20025;-70
2023/04/10 00:02:35;;;;;;;15.98;7.20;;;6.30;99.90;;;;;;5038907;28;20033;-70
2023/04/10 00:05:00;;;;;;;13.20;6.82;;;6.30;99.90;;;;;;5038786;28;20033;-70
2023/04/10 00:07:26;;;;;;;14.43;7.05;;;6.30;99.90;;;;;;5039670;28;20037;-70
2023/04/10 00:09:52;;;;;;;13.77;6.63;;;6.30;99.90;;;;;;5038457;28;20018;-70
2023/04/10 00:12:17;;;;;;;12.27;6.22;;;6.30;99.90;;;;;;5038430;28;20108;-70
2023/04/10 00:14:43;;;;;;;11.10;6.00;;;6.30;99.90;;;;;;5038560;28;20093;-70
2023/04/10 00:17:09;;;;;;;9.73;5.85;;;6.40;99.90;;;;;;5038565;28;20116;-70
2023/04/10 00:19:35;;;;;;;12.98;6.68;;;6.30;99.90;;;;;;5038561;28;20027;-70
2023/04/10 00:22:00;;;;;;;12.13;5.88;;;6.30;99.90;;;;;;5039525;28;20026;-70
2023/04/10 00:24:26;;;;;;;12.55;6.13;;;6.10;99.90;;;;;;5038390;28;20060;-70
2023/04/10 00:26:51;;;;;;;18.38;6.63;;;6.10;99.90;;;;;;5038268;28;20076;-70
2023/04/10 00:29:17;;;;;;;14.30;6.47;;;6.10;99.90;;;;;;5038225;28;20075;-70
2023/04/10 00:31:42;;;;;;;14.60;6.72;;;6.00;99.90;;;;;;5038076;28;20064;-70
2023/04/10 00:34:08;;;;;;;14.95;6.03;;;5.90;99.90;;;;;;5038153;28;20032;-70
2023/04/10 00:36:34;;;;;;;14.57;6.72;;;5.90;99.90;;;;;;5039076;28;20026;-70
2023/04/10 00:39:00;;;;;;;17.08;7.03;;;5.80;99.90;;;;;;5037147;28;20120;-70
2023/04/10 00:41:25;;;;;;;14.07;6.13;;;5.80;99.90;;;;;;5038756;28;20122;-70
2023/04/10 00:43:57;;;;;;;12.93;6.20;;;5.70;99.90;;;;;;5038066;28;20094;-70
2023/04/10 00:46:23;;;;;;;11.30;6.60;;;5.70;99.90;;;;;;5038045;28;20112;-70
2023/04/10 00:48:51;;;;;;;13.25;6.90;;;5.70;99.90;;;;;;5038304;28;20034;-70
2023/04/10 00:51:19;;;;;;;13.57;6.20;;;5.70;99.90;;;;;;5038703;28;20104;-70
2023/04/10 00:53:50;;;;;;;12.35;6.60;;;5.70;99.90;;;;;;5037872;28;20085;-70
2023/04/10 00:56:17;;;;;;;13.68;6.68;;;5.70;99.90;;;;;;5038610;28;20025;-70
2023/04/10 00:58:42;;;;;;;12.65;6.20;;;5.70;99.90;;;;;;5040107;28;20056;-70
2023/04/10 01:01:08;;;;;;;9.27;5.75;;;5.80;99.90;;;;;;5040129;28;20018;-70
2023/04/10 01:03:34;;;;;;;14.20;6.80;;;5.80;99.90;;;;;;5038212;28;20029;-70
2023/04/10 01:06:15;;;;;;;11.73;6.40;;;5.60;99.90;;;;;;5038689;28;20049;-70
2023/04/10 01:08:54;;;;;;;12.75;6.47;;;5.40;99.90;;;;;;5040381;28;20095;-70
2023/04/10 01:11:52;;;;;;;12.93;6.95;;;5.20;99.90;;;;;;5039225;28;20033;-70
2023/04/10 01:14:20;;;;;;;15.95;7.35;;;5.20;99.90;;;;;;5041781;28;20021;-70
2023/04/10 01:16:53;;;;;;;12.02;5.75;;;5.10;99.90;;;;;;5038831;28;20128;-70
2023/04/10 01:19:42;;;;;;;10.90;6.57;;;5.10;99.90;;;;;;5041452;28;20021;-70
2023/04/10 01:22:12;;;;;;;12.50;5.75;;;5.10;99.90;;;;;;5041462;28;20018;-70
2023/04/10 01:24:59;;;;;;;11.27;5.43;;;5.10;99.90;;;;;;5040854;28;20113;-69
2023/04/10 01:27:45;;;;;;;13.68;6.55;;;5.20;99.90;;;;;;5040351;28;20075;-69
2023/04/10 01:30:15;;;;;;;12.55;5.80;;;5.20;99.90;;;;;;5039769;28;20032;-69
2023/04/10 01:32:42;;;;;;;12.07;6.15;;;5.20;99.90;;;;;;5041306;28;20020;-70
2023/04/10 01:35:09;;;;;;;13.23;6.90;;;5.30;99.90;;;;;;5040826;28;20022;-69
2023/04/10 01:37:39;;;;;;;14.07;5.90;;;5.40;99.90;;;;;;5041118;28;20028;-69
2023/04/10 01:40:09;;;;;;;15.75;5.85;;;5.40;99.90;;;;;;5039341;28;20033;-70
2023/04/10 01:42:40;;;;;;;14.20;6.40;;;5.30;99.90;;;;;;5037728;28;20048;-68
2023/04/10 01:45:10;;;;;;;13.97;7.20;;;5.20;99.90;;;;;;5037921;28;20065;-69
2023/04/10 01:47:36;;;;;;;14.60;6.78;;;5.20;99.90;;;;;;5038015;28;20124;-69
2023/04/10 01:50:03;;;;;;;12.25;6.47;;;5.10;99.90;;;;;;5040409;28;20068;-69
2023/04/10 01:52:30;;;;;;;16.27;6.47;;;5.10;99.90;;;;;;5041963;28;20028;-69
2023/04/10 01:54:57;;;;;;;9.98;5.75;;;5.20;99.90;;;;;;5038718;28;20024;-69
2023/04/10 01:57:23;;;;;;;11.63;5.68;;;5.20;99.90;;;;;;5036797;28;20036;-69
2023/04/10 01:59:48;;;;;;;12.25;6.40;;;5.10;99.90;;;;;;5036952;28;20035;-69
2023/04/10 02:02:14;;;;;;;13.35;6.28;;;5.00;99.90;;;;;;5036779;28;20029;-69
2023/04/10 02:04:39;;;;;;;10.30;5.78;;;4.80;99.90;;;;;;5038097;28;20026;-69
2023/04/10 02:07:07;;;;;;;15.57;6.30;;;4.70;99.90;;;;;;5036802;28;20022;-69
2023/04/10 02:09:37;;;;;;;12.13;6.30;;;4.70;99.90;;;;;;5037025;28;20091;-69
2023/04/10 02:12:09;;;;;;;11.05;6.10;;;4.70;99.90;;;;;;5042661;28;20029;-69
2023/04/10 02:14:40;;;;;;;9.38;5.40;;;4.80;99.90;;;;;;5036832;28;20029;-69
2023/04/10 02:17:07;;;;;;;12.52;6.13;;;4.80;99.90;;;;;;5036731;28;20064;-69
2023/04/10 02:19:34;;;;;;;15.05;6.45;;;4.80;99.90;;;;;;5036984;28;20029;-69
2023/04/10 02:22:00;;;;;;;11.43;5.82;;;4.90;99.90;;;;;;5036633;28;20040;-69
2023/04/10 02:24:27;;;;;;;11.73;6.13;;;4.90;99.90;;;;;;5037165;28;20037;-69
2023/04/10 02:26:53;;;;;;;15.52;6.72;;;4.90;99.90;;;;;;5037124;28;20033;-70
2023/04/10 02:29:18;;;;;;;13.88;5.75;;;4.90;99.90;;;;;;5036113;28;20048;-69
2023/04/10 02:31:45;;;;;;;11.88;6.07;;;4.80;99.90;;;;;;5036206;28;20034;-69
2023/04/10 02:34:11;;;;;;;14.30;5.95;;;4.70;99.90;;;;;;5036968;28;20030;-70
2023/04/10 02:36:38;;;;;;;11.00;5.72;;;4.60;99.90;;;;;;5036478;28;20024;-70
2023/04/10 02:39:05;;;;;;;13.18;6.20;;;4.50;99.90;;;;;;5035889;28;20041;-70
2023/04/10 02:41:30;;;;;;;10.82;6.38;;;4.50;99.90;;;;;;5036509;28;20033;-69
2023/04/10 02:43:56;;;;;;;11.70;6.05;;;4.50;99.90;;;;;;5036992;28;20048;-69
2023/04/10 02:46:22;;;;;;;13.02;6.40;;;4.40;99.90;;;;;;5036139;28;20030;-69
2023/04/10 02:48:48;;;;;;;11.80;6.28;;;4.50;99.90;;;;;;5035946;28;20033;-69
2023/04/10 02:51:13;;;;;;;15.70;7.15;;;4.60;99.90;;;;;;5035887;28;20029;-69
2023/04/10 02:53:39;;;;;;;13.10;6.50;;;4.70;99.90;;;;;;5036714;28;20021;-69
2023/04/10 02:56:05;;;;;;;11.50;6.30;;;4.70;99.90;;;;;;5036303;28;20021;-69
2023/04/10 02:58:31;;;;;;;14.10;6.30;;;4.70;99.90;;;;;;5035766;28;20076;-69
2023/04/10 03:00:57;;;;;;;11.68;6.15;;;4.70;99.90;;;;;;5035969;28;20022;-69
2023/04/10 03:03:22;;;;;;;13.75;6.13;;;4.70;99.90;;;;;;5038818;28;20036;-69
2023/04/10 03:05:48;;;;;;;10.60;5.78;;;4.70;99.90;;;;;;5039981;28;20021;-69
2023/04/10 03:08:16;;;;;;;12.63;6.05;;;4.70;99.90;;;;;;5040809;28;20053;-69
2023/04/10 03:10:47;;;;;;;11.65;5.78;;;4.60;99.90;;;;;;5040761;28;20024;-69
2023/04/10 03:13:13;;;;;;;12.52;6.43;;;4.50;99.90;;;;;;5041115;28;20022;-69
2023/04/10 03:15:38;;;;;;;12.05;5.72;;;4.50;99.90;;;;;;5043883;28;20016;-69
2023/04/10 03:18:08;;;;;;;10.23;5.28;;;4.50;99.90;;;;;;5040997;28;20079;-69
2023/04/10 03:20:36;;;;;;;12.57;5.75;;;4.50;99.90;;;;;;5039506;28;20022;-69
2023/04/10 03:23:02;;;;;;;11.07;5.38;;;4.50;99.90;;;;;;5039570;28;20092;-73
2023/04/10 03:25:28;;;;;;;12.18;5.88;;;4.50;99.90;;;;;;5040386;28;20041;-73
2023/04/10 03:27:54;;;;;;;11.60;5.43;;;4.50;99.90;;;;;;5039441;28;20033;-73
2023/04/10 03:30:20;;;;;;;13.20;5.80;;;4.40;99.90;;;;;;5039357;28;20069;-73
2023/04/10 03:32:45;;;;;;;11.65;5.78;;;4.30;99.90;;;;;;5040245;28;20025;-73
2023/04/10 03:35:11;;;;;;;14.77;6.22;;;4.40;99.90;;;;;;5039695;28;20057;-73
2023/04/10 03:37:37;;;;;;;11.00;5.78;;;4.40;99.90;;;;;;5039141;28;20075;-73
2023/04/10 03:40:07;;;;;;;12.85;5.38;;;4.30;99.90;;;;;;5040680;28;20037;-73
2023/04/10 03:42:33;;;;;;;12.10;6.53;;;4.40;99.90;;;;;;5040126;28;20025;-73
2023/04/10 03:45:00;;;;;;;12.70;5.57;;;4.40;99.90;;;;;;5039586;28;20029;-73
2023/04/10 03:47:25;;;;;;;11.13;5.20;;;4.30;99.90;;;;;;5039270;28;20025;-73
2023/04/10 03:49:53;;;;;;;11.77;5.93;;;4.30;99.90;;;;;;5039202;28;20035;-73
2023/04/10 03:52:19;;;;;;;12.90;6.55;;;4.30;99.90;;;;;;5039083;28;20022;-73
2023/04/10 03:54:44;;;;;;;15.82;7.82;;;4.30;99.90;;;;;;5039778;28;20025;-73
2023/04/10 03:57:10;;;;;;;13.13;6.53;;;4.20;99.90;;;;;;5040229;28;20086;-73
2023/04/10 03:59:35;;;;;;;13.63;7.18;;;4.20;99.90;;;;;;5039656;28;20022;-73
2023/04/10 04:02:01;;;;;;;15.20;6.68;;;4.20;99.90;;;;;;5038719;28;20018;-74
2023/04/10 04:04:26;;;;;;;11.73;5.95;;;4.20;99.90;;;;;;5039111;28;20021;-73
2023/04/10 04:06:52;;;;;;;10.40;5.10;;;4.20;99.90;;;;;;5039669;28;20048;-73
2023/04/10 04:09:18;;;;;;;12.48;6.28;;;4.10;99.90;;;;;;5038626;28;20030;-73
2023/04/10 04:11:43;;;;;;;11.93;5.97;;;4.20;99.90;;;;;;5040508;28;20036;-73
2023/04/10 04:14:09;;;;;;;13.73;5.82;;;4.20;99.90;;;;;;5038590;28;20096;-73
2023/04/10 04:16:34;;;;;;;12.07;6.05;;;4.20;99.90;;;;;;5039872;28;20025;-74
2023/04/10 04:19:00;;;;;;;9.20;5.13;;;4.30;99.90;;;;;;5038490;28;20025;-74
2023/04/10 04:21:26;;;;;;;10.90;5.25;;;4.30;99.90;;;;;;5044226;28;20033;-74
2023/04/10 04:23:51;;;;;;;14.65;6.15;;;4.40;99.90;;;;;;5038516;28;20017;-74
2023/04/10 04:26:17;;;;;;;10.55;5.45;;;4.40;99.90;;;;;;5039595;28;20379;-74
2023/04/10 04:28:42;;;;;;;10.63;6.32;;;4.30;99.90;;;;;;5038282;28;20020;-74
2023/04/10 04:31:08;;;;;;;12.18;6.47;;;4.30;99.90;;;;;;5038182;28;20026;-74
2023/04/10 04:33:33;;;;;;;11.65;5.82;;;4.20;99.90;;;;;;5039059;28;20033;-74
2023/04/10 04:35:59;;;;;;;13.55;6.22;;;4.20;99.90;;;;;;5038222;28;20021;-74
2023/04/10 04:38:25;;;;;;;11.88;6.22;;;4.30;99.90;;;;;;5038385;28;20018;-74
2023/04/10 04:40:50;;;;;;;10.75;5.28;;;4.40;99.90;;;;;;5038044;28;20160;-74
2023/04/10 04:43:16;;;;;;;13.23;5.97;;;4.40;99.90;;;;;;5038579;28;20064;-74
2023/04/10 04:45:41;;;;;;;12.02;6.10;;;4.40;99.90;;;;;;5038342;28;20029;-74
2023/04/10 04:48:07;;;;;;;17.75;7.25;;;4.20;99.90;;;;;;5038042;28;20034;-74
2023/04/10 04:50:32;;;;;;;13.52;6.28;;;4.10;99.90;;;;;;5037726;28;20032;-74
2023/04/10 04:52:59;;;;;;;14.95;6.82;;;4.10;99.90;;;;;;5037955;28;20022;-74
2023/04/10 04:55:24;;;;;;;11.60;5.65;;;4.10;99.90;;;;;;5037875;28;20164;-74
2023/04/10 04:57:50;;;;;;;14.10;6.53;;;4.00;99.90;;;;;;5038083;28;20029;-74
2023/04/10 05:00:16;;;;;;;11.45;6.15;;;4.10;99.90;;;;;;5039009;28;20051;-74
2023/04/10 05:02:41;;;;;;;14.55;6.82;;;4.00;99.90;;;;;;5037786;28;20093;-74
2023/04/10 05:05:07;;;;;;;13.73;6.47;;;4.00;99.90;;;;;;5037691;28;20048;-74
2023/04/10 05:07:32;;;;;;;15.70;6.70;;;4.10;99.90;;;;;;5037679;28;20029;-74
2023/04/10 05:09:58;;;;;;;12.05;6.50;;;4.10;99.90;;;;;;5037434;28;20026;-74
2023/04/10 05:12:24;;;;;;;12.73;6.93;;;4.30;99.90;;;;;;5038445;28;20040;-74
2023/04/10 05:14:50;;;;;;;14.10;6.53;;;4.30;99.90;;;;;;5038655;28;20078;-74
2023/04/10 05:17:15;;;;;;;12.73;6.53;;;4.30;99.90;;;;;;5037480;28;20108;-74
2023/04/10 05:19:41;;;;;;;15.75;6.65;;;4.20;99.90;;;;;;5037299;28;20108;-74
2023/04/10 05:22:06;;;;;;;14.35;6.80;;;4.20;99.90;;;;;;5037304;28;20048;-74
2023/04/10 05:24:32;;;;;;;18.92;7.82;;;4.10;99.90;;;;;;5043233;28;20187;-74
2023/04/10 05:26:58;;;;;;;14.93;7.30;;;4.10;99.90;;;;;;5036839;28;20033;-74
2023/04/10 05:29:23;;;;;;;12.55;6.47;;;4.00;99.90;;;;;;5037099;28;20033;-74
2023/04/10 05:31:50;;;;;;;14.75;7.22;;;4.00;99.90;;;;;;5037987;28;20022;-74
2023/04/10 05:34:16;;;;;;;15.18;7.15;;;4.10;99.90;;;;;;5038084;28;20176;-74
2023/04/10 05:36:41;;;;;;;15.90;7.93;;;4.20;99.90;;;;;;5036919;28;20021;-74
2023/04/10 05:39:07;;;;;;;15.50;7.75;;;4.30;99.90;;;;;;5036729;28;20132;-73
2023/04/10 05:41:32;;;;;;;14.45;7.30;;;4.40;99.90;;;;;;5038192;28;20037;-74
2023/04/10 05:43:58;;;;;;;15.05;7.28;;;4.40;99.90;;;;;;5037814;28;20022;-74
2023/04/10 05:46:23;;;;;;;18.65;8.23;;;4.50;99.90;;;;;;5036880;28;20021;-74
2023/04/10 05:48:50;;;;;;;16.10;7.60;;;4.50;99.90;;;;;;5036786;28;20084;-74
2023/04/10 05:51:15;;;;;;;16.45;6.85;;;4.50;99.90;;;;;;5036716;28;20021;-74
2023/04/10 05:53:41;;;;;;;13.48;6.63;;;4.60;99.90;;;;;;5036705;28;20022;-74
2023/04/10 05:56:07;;;;;;;13.45;6.82;;;4.60;99.90;;;;;;5036698;28;20070;-74
2023/04/10 05:58:32;;;;;;;14.95;7.45;;;4.70;99.90;;;;;;5036580;28;20028;-74
2023/04/10 06:00:58;;;;;;;13.63;6.68;;;4.70;99.90;;;;;;5036578;28;20025;-74
2023/04/10 06:03:26;;;;;;;15.30;7.13;;;4.70;99.90;;;;;;5036540;28;20036;-74
2023/04/10 06:05:52;;;;;;;15.55;7.18;;;4.60;99.90;;;;;;5037347;28;20113;-74
2023/04/10 06:08:18;;;;;;;14.98;7.45;;;4.60;99.90;;;;;;5036764;28;20122;-74
2023/04/10 06:10:45;;;;;;;15.35;7.15;;;4.50;99.90;;;;;;5036465;28;20033;-74
2023/04/10 06:13:10;;;;;;;14.80;6.38;;;4.60;99.90;;;;;;5037192;28;20021;-74
2023/04/10 06:15:36;;;;;;;16.13;6.88;;;4.60;99.90;;;;;;5036681;28;20029;-74
2023/04/10 06:18:02;;;;;;;16.17;7.65;;;4.80;99.90;;;;;;5036571;28;20018;-74
2023/04/10 06:20:27;;;;;;;17.83;7.00;;;5.00;99.90;;;;;;5036228;28;20037;-74
2023/04/10 06:22:53;;;;;;;17.05;7.90;;;5.00;99.90;;;;;;5036663;28;20064;-74
2023/04/10 06:25:18;;;;;;;15.00;6.85;;;5.20;99.90;;;;;;5037322;28;20099;-74
2023/04/10 06:27:44;;;;;;;13.15;7.05;;;5.30;99.90;;;;;;5037439;28;20030;-74
2023/04/10 06:30:10;;;;;;;13.18;7.20;;;5.40;99.90;;;;;;5041454;28;20057;-74
2023/04/10 06:32:35;;;;;;;15.00;8.32;;;5.50;99.90;;;;;;5036314;28;20021;-74
2023/04/10 06:35:01;;;;;;;16.02;7.78;;;5.60;99.90;;;;;;5036435;28;20021;-74
2023/04/10 06:37:31;;;;;;;14.48;7.07;;;5.90;99.90;;;;;;5035530;28;20025;-74
2023/04/10 06:40:10;;;;;;;19.23;7.65;;;6.10;99.90;;;;;;5036335;28;20034;-74
2023/04/10 06:42:36;;;;;;;15.57;7.38;;;6.30;99.90;;;;;;5036057;28;20113;-74
2023/04/10 06:45:03;;;;;;;15.38;7.13;;;6.40;99.90;;;;;;5035975;28;20036;-74
2023/04/10 06:47:30;;;;;;;14.63;6.78;;;6.50;99.90;;;;;;5036163;28;20018;-74
2023/04/10 06:49:56;;;;;;;13.52;7.45;;;6.60;99.90;;;;;;5036229;28;20033;-74
2023/04/10 06:52:21;;;;;;;15.65;7.10;;;6.70;99.90;;;;;;5036169;28;20025;-74
2023/04/10 06:54:47;;;;;;;14.25;6.75;;;6.80;99.90;;;;;;5036499;28;20079;-74
2023/04/10 06:57:13;;;;;;;15.13;7.03;;;6.90;99.90;;;;;;5036183;28;20037;-74
2023/04/10 06:59:38;;;;;;;14.73;8.13;;;7.00;99.90;;;;;;5036158;28;20018;-74
2023/04/10 07:02:04;;;;;;;14.27;7.32;;;7.10;99.90;;;;;;5035800;28;20025;-74
2023/04/10 07:04:30;;;;;;;15.13;6.95;;;7.20;99.90;;;;;;5036116;28;20072;-74
2023/04/10 07:06:56;;;;;;;16.17;7.47;;;7.30;99.90;;;;;;5036753;28;20093;-74
2023/04/10 07:09:23;;;;;;;15.00;7.53;;;7.30;99.90;;;;;;5036424;28;20064;-74
2023/04/10 07:11:49;;;;;;;19.88;8.70;;;7.30;99.90;;;;;;5035670;28;20028;-75
2023/04/10 07:14:14;;;;;;;16.52;8.38;;;7.40;99.90;;;;;;5036232;28;20029;-74
2023/04/10 07:16:40;;;;;;;12.75;7.25;;;7.50;99.90;;;;;;5035642;28;20033;-70
2023/04/10 07:19:05;;;;;;;15.90;7.45;;;7.60;99.90;;;;;;5035624;28;20036;-71
2023/04/10 07:21:31;;;;;;;16.35;7.60;;;7.80;99.90;;;;;;5035753;28;20022;-70
2023/04/10 07:23:57;;;;;;;13.75;7.32;;;7.90;99.90;;;;;;5036421;28;20025;-70
2023/04/10 07:26:22;;;;;;;17.30;7.53;;;8.00;99.90;;;;;;5035727;28;20025;-70
2023/04/10 07:28:48;;;;;;;15.63;7.68;;;8.10;99.90;;;;;;5035822;28;20045;-70
2023/04/10 07:31:14;;;;;;;14.98;8.02;;;8.20;99.90;;;;;;5035724;28;20037;-70
2023/04/10 07:33:40;;;;;;;15.93;7.82;;;8.30;99.90;;;;;;5036558;28;20084;-70
2023/04/10 07:36:06;;;;;;;16.45;8.40;;;8.30;99.90;;;;;;5035485;28;20021;-70
2023/04/10 07:38:31;;;;;;;15.48;7.10;;;8.40;99.90;;;;;;5035514;28;20086;-70
2023/04/10 07:41:01;;;;;;;21.63;8.70;;;8.60;99.90;;;;;;5035536;28;20037;-71
2023/04/10 07:43:27;;;;;;;16.73;7.97;;;8.70;99.90;;;;;;5035886;28;20032;-70
2023/04/10 07:45:52;;;;;;;22.52;8.15;;;8.70;99.90;;;;;;5035597;28;20029;-70
2023/04/10 07:48:18;;;;;;;13.55;6.78;;;8.90;99.90;;;;;;5036761;28;20033;-70
2023/04/10 07:50:44;;;;;;;17.25;8.30;;;9.00;99.90;;;;;;5038962;28;20029;-70
2023/04/10 07:53:09;;;;;;;14.35;7.25;;;9.10;99.90;;;;;;5039826;28;20025;-70
2023/04/10 07:55:43;;;;;;;14.90;8.05;;;9.20;99.90;;;;;;5039752;28;20021;-71
2023/04/10 07:58:09;;;;;;;16.52;7.28;;;9.40;99.90;;;;;;5039247;28;20032;-70
2023/04/10 08:00:35;;;;;;;12.15;6.63;;;9.60;99.90;;;;;;5038790;28;20025;-70
2023/04/10 08:03:00;;;;;;;13.48;7.30;;;9.80;99.90;;;;;;5039017;28;20029;-70
2023/04/10 08:05:26;;;;;;;16.02;7.88;;;10.10;99.90;;;;;;5039809;28;20076;-71
2023/04/10 08:07:52;;;;;;;13.82;7.20;;;10.20;99.90;;;;;;5039465;28;20032;-70
2023/04/10 08:10:18;;;;;;;15.52;6.93;;;10.40;99.90;;;;;;5038864;28;20061;-71
2023/04/10 08:12:43;;;;;;;14.30;7.20;;;10.50;99.90;;;;;;5038556;28;20022;-71
2023/04/10 08:15:09;;;;;;;14.35;7.38;;;10.50;99.90;;;;;;5038783;28;20067;-70
2023/04/10 08:17:35;;;;;;;13.63;6.85;;;10.70;99.90;;;;;;5038891;28;20026;-70
2023/04/10 08:20:00;;;;;;;12.57;6.93;;;10.90;99.90;;;;;;5038391;28;20024;-70
2023/04/10 08:22:26;;;;;;;12.43;6.65;;;11.10;99.90;;;;;;5039187;28;20025;-70
2023/04/10 08:24:51;;;;;;;12.00;6.28;;;11.30;99.90;;;;;;5038683;28;20040;-70
2023/04/10 08:27:17;;;;;;;12.50;6.85;;;11.40;99.90;;;;;;5038685;28;20112;-71
2023/04/10 08:29:43;;;;;;;12.52;6.47;;;11.40;99.90;;;;;;5038564;28;20072;-71
2023/04/10 08:32:08;;;;;;;13.93;6.15;;;11.40;99.90;;;;;;5038407;28;20033;-71
2023/04/10 08:34:34;;;;;;;12.73;7.30;;;11.40;99.90;;;;;;5039025;28;20117;-71
2023/04/10 08:37:03;;;;;;;12.23;6.93;;;11.40;99.90;;;;;;5038169;28;20137;-72
2023/04/10 08:39:29;;;;;;;14.30;7.22;;;11.40;99.90;;;;;;5038450;28;20056;-71
2023/04/10 08:41:54;;;;;;;12.98;7.43;;;11.40;99.90;;;;;;5036982;28;20029;-73
2023/04/10 08:44:20;;;;;;;14.43;7.22;;;11.50;99.90;;;;;;5037394;28;20059;-70
2023/04/10 08:46:47;;;;;;;29.00;7.65;;;11.70;99.90;;;;;;5037221;28;20052;-71
2023/04/10 08:49:44;;;;;;;12.07;6.65;;;11.80;99.90;;;;;;5037501;28;20029;-71
2023/04/10 08:52:19;;;;;;;11.65;6.68;;;11.80;99.90;;;;;;5037940;28;20032;-71
2023/04/10 08:54:49;;;;;;;11.02;6.20;;;11.80;99.90;;;;;;5037729;28;20025;-71
2023/04/10 08:57:19;;;;;;;10.68;5.97;;;11.80;99.90;;;;;;5036694;28;20021;-71
2023/04/10 08:59:46;;;;;;;10.40;6.35;;;11.80;99.90;;;;;;5036177;28;20028;-71
2023/04/10 09:02:12;;;;;;;9.93;5.60;;;11.90;99.90;;;;;;5036991;28;20071;-71
2023/04/10 09:04:37;;;;;;;11.32;5.90;;;12.00;99.90;;;;;;5036734;28;20087;-71
2023/04/10 09:07:03;;;;;;;10.70;6.53;;;12.10;99.90;;;;;;5036706;28;20120;-71
2023/04/10 09:09:31;;;;;;;12.52;6.32;;;12.30;99.90;;;;;;5037283;28;20108;-71
2023/04/10 09:11:59;;;;;;;10.90;6.03;;;12.30;99.90;;;;;;5036675;28;20025;-71
2023/04/10 09:14:33;;;;;;;11.38;6.32;;;12.40;99.90;;;;;;5037351;28;20032;-71
2023/04/10 09:17:19;;;;;;;11.10;5.43;;;12.50;99.90;;;;;;5037503;28;20021;-71
2023/04/10 09:19:47;;;;;;;10.23;5.82;;;12.80;99.90;;;;;;5036369;28;20025;-71
2023/04/10 09:22:15;;;;;;;9.55;6.03;;;12.90;99.90;;;;;;5036419;28;20021;-71
2023/04/10 09:24:42;;;;;;;10.38;5.93;;;13.00;99.90;;;;;;5037280;28;20049;-71
2023/04/10 09:27:08;;;;;;;9.57;5.90;;;13.00;99.90;;;;;;5037062;28;20028;-71
2023/04/10 09:29:47;;;;;;;12.05;5.70;;;13.10;99.90;;;;;;5036252;28;20021;-71
2023/04/10 09:32:33;;;;;;;8.60;4.65;;;13.30;99.90;;;;;;5036586;28;20116;-71
2023/04/10 09:34:59;;;;;;;8.70;5.78;;;13.50;99.90;;;;;;5036471;28;20036;-72
2023/04/10 09:37:31;;;;;;;11.23;5.53;;;13.60;99.90;;;;;;5036831;28;20017;-71
2023/04/10 09:39:56;;;;;;;7.10;4.95;;;13.80;99.90;;;;;;4999769;28;1061357;-71
2023/04/10 09:42:32;;;;;;;10.00;5.95;;;13.80;99.90;;;;;;5037222;28;20017;-71
2023/04/10 09:44:58;;;;;;;10.73;6.10;;;13.90;99.90;;;;;;5037780;28;20021;-71
2023/04/10 09:47:24;;;;;;;12.00;6.18;;;13.80;99.90;;;;;;5037743;28;20022;-71
2023/04/10 09:49:51;;;;;;;9.90;5.45;;;13.70;99.90;;;;;;5036709;28;20025;-71
2023/04/10 09:52:25;;;;;;;10.35;5.75;;;13.70;99.90;;;;;;5036959;28;20029;-71
2023/04/10 09:54:56;;;;;;;14.02;6.38;;;13.70;99.90;;;;;;5037736;28;20025;-70
2023/04/10 09:57:23;;;;;;;8.25;4.85;;;13.80;99.90;;;;;;5037437;28;20124;-71
2023/04/10 09:59:51;;;;;;;8.48;4.78;;;13.90;99.90;;;;;;5036964;28;20022;-70
2023/04/10 10:02:21;;;;;;;7.25;4.75;;;14.10;99.90;;;;;;5037118;28;20116;-70
2023/04/10 10:04:48;;;;;;;7.82;5.03;;;14.20;99.90;;;;;;5037143;28;20025;-70
2023/04/10 10:07:15;;;;;;;8.43;5.22;;;14.40;99.90;;;;;;5036571;28;20022;-70
2023/04/10 10:09:42;;;;;;;8.13;5.38;;;14.40;99.90;;;;;;5037109;28;20025;-70
2023/04/10 10:12:10;;;;;;;7.70;4.93;;;14.40;99.90;;;;;;5036594;28;20029;-72
2023/04/10 10:14:58;;;;;;;9.02;5.07;;;14.50;99.90;;;;;;5036777;28;20022;-70
2023/04/10 10:17:28;;;;;;;8.93;5.13;;;14.50;99.90;;;;;;5035927;28;20036;-70
2023/04/10 10:20:08;;;;;;;7.97;5.13;;;14.70;99.90;;;;;;5036729;28;20064;-70
2023/04/10 10:22:35;;;;;;;7.88;5.18;;;14.90;99.90;;;;;;5037263;28;20025;-70
2023/04/10 10:25:01;;;;;;;15.30;5.47;;;15.00;99.90;;;;;;5036601;28;20210;-70
2023/04/10 10:27:30;;;;;;;7.22;4.30;;;15.10;99.90;;;;;;5036523;28;20029;-70
2023/04/10 10:29:59;;;;;;;7.00;4.57;;;15.30;99.90;;;;;;5036172;28;20022;-69
2023/04/10 10:32:26;;;;;;;7.22;4.20;;;15.60;99.90;;;;;;5036243;28;20017;-71
2023/04/10 10:35:30;;;;;;;11.52;4.40;;;15.80;99.90;;;;;;5036223;28;20064;-70
2023/04/10 10:38:01;;;;;;;7.35;4.45;;;15.90;99.90;;;;;;5036128;28;20032;-70
2023/04/10 10:40:37;;;;;;;5.68;4.03;;;16.00;99.90;;;;;;5037226;28;20037;-70
2023/04/10 10:43:12;;;;;;;6.95;4.32;;;16.10;99.90;;;;;;5036855;28;20129;-70
2023/04/10 10:45:49;;;;;;;5.45;3.78;;;16.30;99.90;;;;;;5036989;28;20032;-70
2023/04/10 10:48:15;;;;;;;6.55;4.38;;;16.20;99.90;;;;;;5037006;28;20025;-70
2023/04/10 10:50:55;;;;;;;6.32;3.80;;;16.30;99.90;;;;;;5035985;28;20060;-70
2023/04/10 10:53:39;;;;;;;6.72;4.35;;;16.30;99.90;;;;;;5036666;28;20025;-70
2023/04/10 10:56:21;;;;;;;7.70;4.43;;;16.30;99.90;;;;;;5036078;28;20021;-70
2023/04/10 10:58:48;;;;;;;7.72;4.55;;;16.40;99.90;;;;;;5037087;28;20014;-70
2023/04/10 11:01:14;;;;;;;7.35;4.78;;;16.30;99.90;;;;;;5037314;28;20025;-70
2023/04/10 11:03:43;;;;;;;7.35;4.43;;;16.30;99.90;;;;;;5035890;28;20093;-70
2023/04/10 11:06:11;;;;;;;5.53;3.85;;;16.50;99.90;;;;;;5037046;28;20075;-70
2023/04/10 11:08:45;;;;;;;6.97;4.68;;;16.70;99.90;;;;;;5036586;28;20034;-70
2023/04/10 11:11:11;;;;;;;5.35;3.78;;;16.90;99.90;;;;;;5036594;28;20026;-70
2023/04/10 11:14:03;;;;;;;6.38;4.10;;;17.20;99.90;;;;;;5035751;28;20028;-71
2023/04/10 11:16:28;;;;;;;5.88;3.95;;;17.40;99.90;;;;;;5031333;28;20093;-70
2023/04/10 11:18:54;;;;;;;9.88;4.32;;;17.50;99.90;;;;;;5035685;28;20060;-71
2023/04/10 11:21:21;;;;;;;8.98;4.82;;;17.50;99.90;;;;;;5035665;28;20029;-70
2023/04/10 11:23:59;;;;;;;6.53;3.97;;;17.60;99.90;;;;;;5036813;28;20026;-70
2023/04/10 11:26:42;;;;;;;4.75;3.28;;;17.60;99.90;;;;;;5040444;28;20048;-70
2023/04/10 11:29:17;;;;;;;8.98;3.53;;;17.60;99.90;;;;;;5040464;28;20083;-70
2023/04/10 11:31:43;;;;;;;6.43;4.00;;;17.70;99.90;;;;;;5039566;28;20018;-70
2023/04/10 11:34:10;;;;;;;11.85;3.67;;;17.80;99.90;;;;;;5040261;28;20040;-70
2023/04/10 11:36:41;;;;;;;6.35;3.88;;;17.60;99.90;;;;;;5039302;28;20017;-71
2023/04/10 11:39:09;;;;;;;6.72;4.05;;;17.60;99.90;;;;;;5039168;28;20025;-70
2023/04/10 11:41:40;;;;;;;5.68;3.40;;;17.60;99.90;;;;;;5040179;28;20044;-71
2023/04/10 11:44:07;;;;;;;4.60;3.15;;;17.70;99.90;;;;;;5039549;28;20029;-71
2023/04/10 11:46:37;;;;;;;6.38;3.08;;;17.90;99.80;;;;;;5039470;28;20041;-71
2023/04/10 11:49:05;;;;;;;4.30;2.95;;;18.20;99.90;;;;;;5039018;28;20025;-71
2023/04/10 11:51:31;;;;;;;3.58;2.63;;;18.20;98.10;;;;;;5039328;28;20025;-70
2023/04/10 11:54:07;;;;;;;3.70;2.80;;;18.20;96.80;;;;;;5039219;28;20068;-71
2023/04/10 11:56:34;;;;;;;3.80;2.80;;;18.20;96.50;;;;;;5038893;28;20018;-71
2023/04/10 11:59:01;;;;;;;4.13;2.53;;;18.00;95.30;;;;;;5039841;28;20025;-71
2023/04/10 12:01:27;;;;;;;3.00;2.28;;;17.90;95.80;;;;;;5039982;28;20044;-71
2023/04/10 12:03:53;;;;;;;2.85;2.13;;;17.80;95.00;;;;;;5039244;28;20022;-71
2023/04/10 12:06:19;;;;;;;8.75;2.50;;;17.50;93.50;;;;;;5039655;28;20025;-71
2023/04/10 12:08:49;;;;;;;3.72;1.90;;;17.40;93.50;;;;;;5039084;28;20021;-71
2023/04/10 12:11:19;;;;;;;4.15;2.25;;;17.40;93.90;;;;;;5039092;28;20029;-71
2023/04/10 12:13:45;;;;;;;2.90;2.05;;;17.30;93.20;;;;;;5039460;28;20064;-71
2023/04/10 12:16:11;;;;;;;3.63;2.10;;;17.30;93.00;;;;;;5038655;28;20028;-71
2023/04/10 12:18:37;;;;;;;3.00;2.20;;;17.20;92.60;;;;;;5038809;28;20021;-71
2023/04/10 12:21:04;;;;;;;3.65;2.83;;;17.20;93.00;;;;;;5038652;28;20022;-71
2023/04/10 12:23:29;;;;;;;3.40;2.17;;;17.20;92.50;;;;;;5038576;28;20036;-71
2023/04/10 12:26:06;;;;;;;4.93;2.28;;;17.30;92.80;;;;;;5038537;28;20025;-71
2023/04/10 12:28:32;;;;;;;4.22;2.80;;;17.40;93.10;;;;;;5038665;28;20036;-71
2023/04/10 12:30:58;;;;;;;4.95;2.85;;;17.50;92.60;;;;;;5038474;28;20030;-71
2023/04/10 12:33:25;;;;;;;3.15;2.30;;;17.70;92.70;;;;;;5039011;28;20029;-71
2023/04/10 12:35:51;;;;;;;3.88;2.60;;;17.90;92.70;;;;;;5038080;28;20025;-71
2023/04/10 12:38:36;;;;;;;4.20;2.88;;;17.90;92.00;;;;;;5038140;28;20026;-71
2023/04/10 12:41:02;;;;;;;6.47;2.78;;;17.90;91.50;;;;;;5038930;28;20037;-71
2023/04/10 12:43:41;;;;;;;4.22;3.03;;;17.90;91.80;;;;;;5039006;28;20021;-71
2023/04/10 12:46:09;;;;;;;3.88;2.97;;;18.00;91.80;;;;;;5038207;28;20052;-71
2023/04/10 12:48:34;;;;;;;3.75;2.92;;;18.10;92.20;;;;;;5038158;28;20021;-71